Midland, MI

2:40 PM EDT on July 29, 2016 (GMT -0400)
Jefferson Middle School | | Change Station

Elev 643 ft 43.65 °N, 84.24 °W | Updated 43 seconds ago

Overcast
Overcast
73.7 °F
Feels Like 76 °F
N
6.0
Wind Variable Wind from NNE

Today
High -- | Low -- °F
--% Chance of Precip.
Yesterday
High -- | Low -- °F
Precip. -- in
Pressure 30.03 in
Visibility 10.0 miles
Clouds Scattered Clouds 7000 ft
Overcast 11000 ft
Heat Index 76 °F
Dew Point 63 °F
Humidity 69%
Rainfall 0.05 in
Snow Depth Not available.
6:23 AM 9:02 PM
Waning Crescent, 20% visible
METAR KIKW 291833Z AUTO 08010KT 040V100 10SM SCT070 OVC110 24/16 A3003 RMK AO2 T02420159
Pressure 30.03 in
Visibility 10.0 miles
Clouds Scattered Clouds 7000 ft
Overcast 11000 ft
Heat Index 76 °F
Dew Point 63 °F
Humidity 69%
Rainfall 0.05 in
Snow Depth Not available.
6:23 AM 9:02 PM
Waning Crescent, 20% visible
METAR KIKW 291833Z AUTO 08010KT 040V100 10SM SCT070 OVC110 24/16 A3003 RMK AO2 T02420159

10-Day Weather Forecast

Almanac

Astronomy

Jul. 29, 2016 Rise Set
Actual Time
Civil Twilight
Nautical Twilight
Astronomical Twilight
Moon
Length of Visible Light
Length of Day
Tomorrow will be .
, % of the Moon is Illuminated

Today's Extremes

State Highs State Lows

Community

WunderPhotos

Upload Photos

1,928,393 photos uploaded!

WunderBlog® & News

Nearby

Air Quality

  Air Quality AQ Index Pollutant
Not available.

Snow Depth

Station Depth Elevation

Earthquake Activity

City Distance Mag. Time & Date
Minimum magnitude displayed is 2.5.

Coastal Water Temperatures

Place Temperature

Stations

Nearby Weather Stations

Station Location Temp. Windchill Dew Point Humidity Wind Precip. Elev Updated Type
                   

Watches & Warnings

There are currently no watches in effect.